Historique des mesures à Cassis (13260), France
Quotidien Résumé Octobre 26, 2017 Unités:  Métrique    US   Métrique/US
« Précédent (Jour)
Suivant (Jour) »
Quotidien Hebdomadaire Mensuel Annuel Période au choix
  Maximum: Minimum: Moyenne:
Température: TemperatureC °C 12.8 °C 15.1 °C
Point de rosée: DewpointC °C 7.6 °C 10.7 °C
Humidité: Humidity % 62 % 71 %
Vitesse du vent: 0 km/h 0 km/h 2.6 km/h
Rafales: 0 km/h - -
Vent:- - SE
Pression: PressurehPa hPa 1021.9 hPa -
Précipitations: 0.0 mm    
Historical Graphs
 
 
Mesures pour : Octobre 26, 2017
Heure Temperature Point de rosée Pression Vent Vitesse du vent Rafales Humidité Pluie (par heure) Conditions
TemperatureC °C DewpointC °C PressurehPa hPa Calm     Humidity % HourlyPrecipMM mm SoftwareType W/m2
00:11 15.2 °C 7.9 °C 1022.6 hPa North 3.4 km/h 3.4 km/h 62 % 0.0 mm open2300-1.11 W/m2
01:11 14.6 °C 7.6 °C 1022.6 hPa North 3.4 km/h 5.1 km/h 63 % 0.0 mm open2300-1.11 W/m2
02:11 14.1 °C 8.1 °C 1022.6 hPa NNW 2.9 km/h 6.4 km/h 67 % 0.0 mm open2300-1.11 W/m2
03:11 13.9 °C 8.7 °C 1022.6 hPa NNW 7.6 km/h 7.6 km/h 71 % 0.0 mm open2300-1.11 W/m2
04:11 13.6 °C 9.4 °C 1022.2 hPa Calm   4.7 km/h 76 % 0.0 mm open2300-1.11 W/m2
05:11 13.4 °C 9.6 °C 1022.2 hPa Calm   3.4 km/h 78 % 0.0 mm open2300-1.11 W/m2
06:11 13.3 °C 9.9 °C 1022.2 hPa NNW 2.9 km/h 5.1 km/h 80 % 0.0 mm open2300-1.11 W/m2
07:11 12.8 °C 9.4 °C 1022.6 hPa Calm   2.3 km/h 80 % 0.0 mm open2300-1.11 W/m2
08:11 12.8 °C 9.8 °C 1022.9 hPa North 2.3 km/h 2.3 km/h 82 % 0.0 mm open2300-1.11 W/m2
09:11 14.2 °C 11.3 °C 1023.2 hPa Calm     83 % 0.0 mm open2300-1.11 W/m2
10:11 15.5 °C 12.7 °C 1023.2 hPa Calm   2.3 km/h 83 % 0.0 mm open2300-1.11 W/m2
11:11 17.0 °C 13.1 °C 1023.2 hPa Calm   2.9 km/h 78 % 0.0 mm open2300-1.11 W/m2
12:11 18.6 °C 12.8 °C 1023.6 hPa Calm   6.4 km/h 69 % 0.0 mm open2300-1.11 W/m2
13:11 19.3 °C 13.4 °C 1023.2 hPa SSE 12.2 km/h 12.2 km/h 69 % 0.0 mm open2300-1.11 W/m2
14:11 19.4 °C 13.6 °C 1022.9 hPa Calm   6.4 km/h 69 % 0.0 mm open2300-1.11 W/m2
15:11 19.0 °C 13.8 °C 1022.2 hPa Calm   11.6 km/h 72 % 0.0 mm open2300-1.11 W/m2
16:11 19.0 °C 13.6 °C 1022.2 hPa SE 1.8 km/h 11.6 km/h 71 % 0.0 mm open2300-1.11 W/m2
17:11 18.8 °C 13.4 °C 1022.2 hPa SSE 6.4 km/h 10.9 km/h 71 % 0.0 mm open2300-1.11 W/m2
19:11 16.9 °C 12.2 °C 1021.9 hPa Calm     74 % 0.0 mm open2300-1.11 W/m2
20:11 15.4 °C 10.6 °C 1022.2 hPa NW 5.1 km/h 14 km/h 73 % 0.0 mm open2300-1.11 W/m2
21:11 15.3 °C 11.1 °C 1022.6 hPa NNE 3.4 km/h 5.1 km/h 76 % 0.0 mm open2300-1.11 W/m2
22:11 15.5 °C 12.1 °C 1022.2 hPa ENE 4.2 km/h 4.2 km/h 80 % 0.0 mm open2300-1.11 W/m2
23:11 14.9 °C 11.7 °C 1022.2 hPa North 6.4 km/h 8 km/h 81 % 0.0 mm open2300-1.11 W/m2
Observations météo à CASSIS
WU-History script by Weather Underground - 1 mb